createdAt,value
2022-08-22T00:01:37.147Z,96929.78
2022-08-22T00:02:45.362Z,96931.69
2022-08-22T00:02:52.599Z,96930.16
2022-08-22T00:03:06.692Z,96954.72
2022-08-22T00:04:14.664Z,96937.84
2022-08-22T00:07:13.929Z,96928.69
2022-08-22T00:10:21.004Z,96927.66
2022-08-22T00:12:55.208Z,96925.72
2022-08-22T00:15:42.078Z,96929.72
2022-08-22T00:18:12.918Z,96932.69
2022-08-22T00:20:43.646Z,96944.31
2022-08-22T00:23:28.601Z,96935.41
2022-08-22T00:26:03.528Z,96935.66
2022-08-22T00:28:36.999Z,96935.97
2022-08-22T00:31:22.421Z,96941.13
2022-08-22T00:34:04.865Z,96938.47
2022-08-22T00:36:52.549Z,96945.38
2022-08-22T00:39:35.631Z,96944.91
2022-08-22T00:42:29.509Z,96953.16
2022-08-22T00:45:17.202Z,96947.31
2022-08-22T00:48:02.109Z,96951.22
2022-08-22T00:50:55.476Z,96941.78
2022-08-22T00:53:40.295Z,96944.38
2022-08-22T00:56:19.092Z,96942.47
2022-08-22T00:59:23.283Z,96951.84
2022-08-22T01:02:08.488Z,96953.50
2022-08-22T01:05:02.256Z,96953.75
2022-08-22T01:07:37.842Z,96943.25
2022-08-22T01:10:17.084Z,96946.59
2022-08-22T01:12:56.441Z,96945.47
2022-08-22T01:15:28.726Z,96949.47
2022-08-22T01:18:32.724Z,96958.72
2022-08-22T01:21:32.984Z,96954.75
2022-08-22T01:24:08.697Z,96955.03
2022-08-22T01:27:09.363Z,96949.56
2022-08-22T01:29:55.987Z,96955.13
2022-08-22T01:32:31.617Z,96948.19
2022-08-22T01:35:29.910Z,96952.00
2022-08-22T01:38:18.101Z,96952.16
2022-08-22T01:41:10.526Z,96957.19
2022-08-22T01:44:00.609Z,96956.06
2022-08-22T01:46:49.037Z,96946.88
2022-08-22T01:49:32.561Z,96950.47
2022-08-22T01:52:09.661Z,96945.19
2022-08-22T01:54:55.038Z,96959.31
2022-08-22T01:57:23.468Z,96958.03
2022-08-22T01:59:54.729Z,96957.16
2022-08-22T02:02:50.485Z,96950.88
2022-08-22T02:05:16.963Z,96956.06
2022-08-22T02:07:56.415Z,96960.34
2022-08-22T02:10:41.343Z,96953.78
2022-08-22T02:13:13.961Z,96964.84
2022-08-22T02:15:40.473Z,96968.50
2022-08-22T02:18:06.987Z,96962.78
2022-08-22T02:20:48.769Z,96962.91
2022-08-22T02:23:46.296Z,96965.13
2022-08-22T02:26:50.453Z,96967.25
2022-08-22T02:29:31.636Z,96967.50
2022-08-22T02:32:06.833Z,96965.34
2022-08-22T02:34:56.727Z,96963.78
2022-08-22T02:37:50.426Z,96970.50
2022-08-22T02:40:21.689Z,96962.25
2022-08-22T02:43:15.405Z,96961.28
2022-08-22T02:45:47.027Z,96963.78
2022-08-22T02:48:39.376Z,96963.75
2022-08-22T02:51:33.258Z,96957.75
2022-08-22T02:54:16.986Z,96951.44
2022-08-22T02:57:00.780Z,96951.72
2022-08-22T03:00:31.352Z,96952.91
2022-08-22T03:03:03.286Z,96947.31
2022-08-22T03:05:44.048Z,96958.31
2022-08-22T03:08:31.978Z,96947.06
2022-08-22T03:11:06.294Z,96959.56
2022-08-22T03:14:12.195Z,96958.31
2022-08-22T03:16:49.369Z,96952.31
2022-08-22T03:19:24.909Z,96952.97
2022-08-22T03:22:03.144Z,96953.22
2022-08-22T03:24:29.643Z,96952.72
2022-08-22T03:27:32.395Z,96950.06
2022-08-22T03:30:10.160Z,96948.09
2022-08-22T03:32:59.071Z,96954.13
2022-08-22T03:35:37.255Z,96956.63
2022-08-22T03:38:26.978Z,96954.50
2022-08-22T03:41:20.255Z,96953.19
2022-08-22T03:43:49.836Z,96951.19
2022-08-22T03:46:53.518Z,96957.66
2022-08-22T03:49:38.353Z,96958.63
2022-08-22T03:52:30.757Z,96963.31
2022-08-22T03:55:16.033Z,96966.16
2022-08-22T03:58:13.616Z,96957.75
2022-08-22T04:01:13.542Z,96958.19
2022-08-22T04:03:52.339Z,96956.63
2022-08-22T04:06:45.994Z,96953.72
2022-08-22T04:09:17.788Z,96962.63
2022-08-22T04:12:21.906Z,96965.09
2022-08-22T04:15:07.143Z,96966.25
2022-08-22T04:17:39.562Z,96964.94
2022-08-22T04:20:30.587Z,96967.44
2022-08-22T04:23:27.603Z,96967.56
2022-08-22T04:26:29.006Z,96967.88
2022-08-22T04:29:06.478Z,96968.41
2022-08-22T04:31:42.404Z,96976.94
2022-08-22T04:34:24.985Z,96970.38
2022-08-22T04:37:14.676Z,96975.63
2022-08-22T04:39:59.740Z,96977.75
2022-08-22T04:42:38.067Z,96990.06
2022-08-22T04:45:10.556Z,96984.66
2022-08-22T04:47:54.305Z,96988.28
2022-08-22T04:50:49.666Z,96985.38
2022-08-22T04:53:48.486Z,96982.28
2022-08-22T04:56:28.125Z,96992.09
2022-08-22T04:59:03.580Z,96988.91
2022-08-22T05:01:42.843Z,96996.56
2022-08-22T05:04:15.278Z,97002.69
2022-08-22T05:06:49.496Z,97003.28
2022-08-22T05:09:35.906Z,96998.69
2022-08-22T05:12:12.008Z,97009.00
2022-08-22T05:14:51.327Z,97010.16
2022-08-22T05:17:25.474Z,97007.22
2022-08-22T05:19:56.782Z,97014.91
2022-08-22T05:22:33.891Z,97009.06
2022-08-22T05:25:06.676Z,97010.91
2022-08-22T05:27:42.094Z,97012.03
2022-08-22T05:30:16.238Z,97015.97
2022-08-22T05:32:52.261Z,97013.78
2022-08-22T05:35:29.212Z,97008.19
2022-08-22T05:37:56.677Z,97012.25
2022-08-22T05:40:30.422Z,97011.81
2022-08-22T05:42:58.260Z,97019.19
2022-08-22T05:45:27.145Z,97019.78
2022-08-22T05:48:08.846Z,97023.50
2022-08-22T05:50:40.428Z,97020.53
2022-08-22T05:53:24.089Z,97026.94
2022-08-22T05:56:02.932Z,97037.44
2022-08-22T05:58:51.413Z,97033.19
2022-08-22T06:01:35.538Z,97022.00
2022-08-22T06:04:08.629Z,97016.38
2022-08-22T06:06:57.460Z,97022.13
2022-08-22T06:09:34.675Z,97024.31
2022-08-22T06:12:16.490Z,97029.34
2022-08-22T06:15:12.351Z,97035.03
2022-08-22T06:17:47.165Z,97027.53
2022-08-22T06:20:20.479Z,97028.69
2022-08-22T06:22:55.045Z,97027.69
2022-08-22T06:25:34.960Z,97027.66
2022-08-22T06:28:07.654Z,97037.31
2022-08-22T06:30:36.895Z,97032.31
2022-08-22T06:33:12.671Z,97032.19
2022-08-22T06:36:06.327Z,97028.13
2022-08-22T06:39:08.167Z,97037.63
2022-08-22T06:41:51.972Z,97033.94
2022-08-22T06:44:24.005Z,97039.03
2022-08-22T06:46:54.439Z,97028.78
2022-08-22T06:49:24.745Z,97028.38
2022-08-22T06:51:51.989Z,97028.75
2022-08-22T06:54:23.834Z,97027.72
2022-08-22T06:56:53.369Z,97030.09
2022-08-22T06:59:27.589Z,97029.16
2022-08-22T07:02:04.081Z,97033.16
2022-08-22T07:04:31.598Z,97029.78
2022-08-22T07:07:01.320Z,97031.63
2022-08-22T07:09:34.664Z,97028.31
2022-08-22T07:12:24.158Z,97037.66
2022-08-22T07:14:52.067Z,97027.63
2022-08-22T07:17:25.718Z,97025.19
2022-08-22T07:20:26.975Z,97025.72
2022-08-22T07:23:10.157Z,97030.97
2022-08-22T07:25:49.211Z,97036.81
2022-08-22T07:28:37.013Z,97033.88
2022-08-22T07:31:26.400Z,97033.97
2022-08-22T07:34:23.582Z,97026.25
2022-08-22T07:37:00.534Z,97029.47
2022-08-22T07:39:47.816Z,97027.84
2022-08-22T07:42:21.582Z,97026.09
2022-08-22T07:45:02.996Z,97026.16
2022-08-22T07:47:50.607Z,97022.13
2022-08-22T07:50:22.768Z,97018.06
2022-08-22T07:52:51.748Z,97023.53
2022-08-22T07:55:23.310Z,97021.03
2022-08-22T07:58:04.728Z,97022.06
2022-08-22T08:00:32.477Z,97025.41
2022-08-22T08:03:04.598Z,97021.38
2022-08-22T08:05:34.473Z,97022.78
2022-08-22T08:08:09.093Z,97017.13
2022-08-22T08:10:42.367Z,97016.34
2022-08-22T08:13:13.508Z,97011.63
2022-08-22T08:15:43.037Z,97011.88
2022-08-22T08:18:19.084Z,97017.75
2022-08-22T08:20:49.404Z,97020.66
2022-08-22T08:23:22.249Z,97008.00
2022-08-22T08:25:56.974Z,96998.72
2022-08-22T08:28:37.562Z,97001.06
2022-08-22T08:31:25.120Z,96998.56
2022-08-22T08:33:58.088Z,96990.28
2022-08-22T08:36:44.763Z,96995.03
2022-08-22T08:39:21.278Z,96991.81
2022-08-22T08:42:03.376Z,97002.69
2022-08-22T08:44:30.460Z,96997.53
2022-08-22T08:47:23.251Z,96991.69
2022-08-22T08:49:50.559Z,96997.38
2022-08-22T08:52:20.014Z,96994.28
2022-08-22T08:54:55.054Z,96996.44
2022-08-22T08:57:58.689Z,96991.50
2022-08-22T09:00:42.917Z,96987.72
2022-08-22T09:03:29.813Z,96987.13
2022-08-22T09:06:07.199Z,96980.56
2022-08-22T09:08:55.651Z,96972.91
2022-08-22T09:11:42.381Z,96976.72
2022-08-22T09:14:27.766Z,96984.84
2022-08-22T09:17:09.309Z,96978.69
2022-08-22T09:19:45.605Z,96982.97
2022-08-22T09:22:22.190Z,96979.88
2022-08-22T09:24:54.351Z,96972.59
2022-08-22T09:27:35.961Z,96977.22
2022-08-22T09:30:07.629Z,96975.94
2022-08-22T09:32:58.380Z,96970.94
2022-08-22T09:35:30.874Z,96969.63
2022-08-22T09:37:57.573Z,96973.19
2022-08-22T09:40:29.259Z,96974.91
2022-08-22T09:43:02.369Z,96980.38
2022-08-22T09:45:32.783Z,96969.72
2022-08-22T09:48:17.627Z,96969.09
2022-08-22T09:51:04.723Z,96963.59
2022-08-22T09:53:55.601Z,96963.81
2022-08-22T09:56:35.519Z,96969.31
2022-08-22T09:59:04.880Z,96955.94
2022-08-22T10:01:42.184Z,96958.38
2022-08-22T10:04:19.466Z,96956.75
2022-08-22T10:06:55.839Z,96961.72
2022-08-22T10:09:44.869Z,96961.09
2022-08-22T10:12:16.699Z,96958.03
2022-08-22T10:15:09.022Z,96953.09
2022-08-22T10:17:41.118Z,96962.69
2022-08-22T10:20:28.351Z,96961.75
2022-08-22T10:23:03.799Z,96944.78
2022-08-22T10:25:34.695Z,96952.97
2022-08-22T10:28:10.479Z,96953.66
2022-08-22T10:30:55.980Z,96947.03
2022-08-22T10:33:25.516Z,96947.56
2022-08-22T10:36:11.698Z,96945.94
2022-08-22T10:38:46.913Z,96950.78
2022-08-22T10:41:32.551Z,96947.66
2022-08-22T10:44:21.628Z,96952.03
2022-08-22T10:47:06.977Z,96946.03
2022-08-22T10:49:52.266Z,96945.19
2022-08-22T10:52:24.898Z,96934.50
2022-08-22T10:55:12.301Z,96942.88
2022-08-22T10:57:38.978Z,96941.75
2022-08-22T11:00:11.871Z,96942.63
2022-08-22T11:02:38.640Z,96942.88
2022-08-22T11:05:08.766Z,96940.81
2022-08-22T11:07:44.562Z,96940.44
2022-08-22T11:10:15.199Z,96940.94
2022-08-22T11:12:49.713Z,96934.03
2022-08-22T11:15:24.201Z,96939.75
2022-08-22T11:18:08.001Z,96938.03
2022-08-22T11:20:48.653Z,96936.16
2022-08-22T11:23:16.416Z,96935.41
2022-08-22T11:25:58.109Z,96939.50
2022-08-22T11:28:42.820Z,96935.16
2022-08-22T11:31:19.931Z,96932.00
2022-08-22T11:33:58.489Z,96938.06
2022-08-22T11:36:31.161Z,96935.59
2022-08-22T11:39:01.186Z,96939.16
2022-08-22T11:41:44.596Z,96944.53
2022-08-22T11:44:22.319Z,96954.09
2022-08-22T11:46:57.114Z,96944.59
2022-08-22T11:49:32.922Z,96946.03
2022-08-22T11:52:05.623Z,96946.09
2022-08-22T11:54:37.383Z,96944.44
2022-08-22T11:57:08.626Z,96944.63
2022-08-22T11:59:53.949Z,96950.56
2022-08-22T12:02:29.693Z,96953.88
2022-08-22T12:05:13.748Z,96960.84
2022-08-22T12:07:55.427Z,96955.66
2022-08-22T12:10:27.939Z,96945.66
2022-08-22T12:13:04.245Z,96939.97
2022-08-22T12:15:36.716Z,96950.66
2022-08-22T12:18:29.987Z,96949.66
2022-08-22T12:21:11.854Z,96948.19
2022-08-22T12:23:48.922Z,96956.00
2022-08-22T12:26:18.734Z,96956.31
2022-08-22T12:29:01.331Z,96950.97
2022-08-22T12:31:33.618Z,96952.63
2022-08-22T12:34:12.994Z,96953.44
2022-08-22T12:36:51.311Z,96959.22
2022-08-22T12:39:23.272Z,96951.59
2022-08-22T12:42:09.273Z,96959.03
2022-08-22T12:44:45.420Z,96944.53
2022-08-22T12:47:25.186Z,96943.22
2022-08-22T12:50:07.504Z,96942.88
2022-08-22T12:52:33.933Z,96949.19
2022-08-22T12:55:06.535Z,96940.03
2022-08-22T12:57:54.135Z,96942.69
2022-08-22T13:00:23.085Z,96942.09
2022-08-22T13:02:54.568Z,96946.13
2022-08-22T13:05:23.582Z,96944.81
2022-08-22T13:07:56.017Z,96942.50
2022-08-22T13:10:32.333Z,96946.41
2022-08-22T13:13:12.817Z,96943.91
2022-08-22T13:15:56.845Z,96944.47
2022-08-22T13:21:31.511Z,96941.06
2022-08-22T13:24:52.515Z,96945.38
2022-08-22T13:27:51.254Z,96940.88
2022-08-22T13:30:22.408Z,96938.81
2022-08-22T13:32:51.171Z,96935.31
2022-08-22T13:35:23.892Z,96932.69
2022-08-22T13:37:54.716Z,96938.53
2022-08-22T13:40:24.091Z,96929.97
2022-08-22T13:43:01.381Z,96935.63
2022-08-22T13:45:28.886Z,96937.34
2022-08-22T13:48:03.861Z,96935.53
2022-08-22T13:50:37.113Z,96930.34
2022-08-22T13:53:28.003Z,96928.91
2022-08-22T13:55:59.318Z,96930.53
2022-08-22T13:58:38.929Z,96928.84
2022-08-22T14:01:05.549Z,96932.19
2022-08-22T14:03:40.042Z,96934.38
2022-08-22T14:06:37.128Z,96931.28
2022-08-22T14:09:12.244Z,96931.47
2022-08-22T14:11:43.745Z,96930.41
2022-08-22T14:14:10.682Z,96924.13
2022-08-22T14:16:45.446Z,96924.50
2022-08-22T14:19:15.793Z,96921.56
2022-08-22T14:21:42.236Z,96928.81
2022-08-22T14:24:31.159Z,96922.63
2022-08-22T14:27:05.696Z,96918.34
2022-08-22T14:29:51.936Z,96919.69
2022-08-22T14:32:22.776Z,96918.94
2022-08-22T14:35:23.313Z,96919.97
2022-08-22T14:38:17.085Z,96914.06
2022-08-22T14:40:46.246Z,96909.56
2022-08-22T14:43:22.208Z,96910.38
2022-08-22T14:45:57.279Z,96910.56
2022-08-22T14:48:33.174Z,96911.91
2022-08-22T14:51:10.400Z,96908.47
2022-08-22T14:53:38.625Z,96907.59
2022-08-22T14:56:13.405Z,96913.59
2022-08-22T14:59:06.719Z,96911.94
2022-08-22T15:01:35.396Z,96914.25
2022-08-22T15:04:06.077Z,96915.47
2022-08-22T15:06:35.959Z,96923.78
2022-08-22T15:09:23.707Z,96910.31
2022-08-22T15:11:50.612Z,96911.84
2022-08-22T15:14:52.166Z,96912.47
2022-08-22T15:17:51.412Z,96912.56
2022-08-22T15:20:27.900Z,96918.00
2022-08-22T15:22:55.620Z,96917.00
2022-08-22T15:25:25.522Z,96918.28
2022-08-22T15:27:56.763Z,96920.34
2022-08-22T15:30:44.537Z,96924.88
2022-08-22T15:33:33.711Z,96915.31
2022-08-22T15:36:19.935Z,96922.31
2022-08-22T15:38:50.771Z,96919.22
2022-08-22T15:41:24.441Z,96924.81
2022-08-22T15:44:05.056Z,96919.94
2022-08-22T15:46:43.611Z,96923.50
2022-08-22T15:49:10.716Z,96931.09
2022-08-22T15:51:40.409Z,96926.53
2022-08-22T15:54:13.146Z,96925.72
2022-08-22T15:56:53.562Z,96920.59
2022-08-22T15:59:25.555Z,96929.53
2022-08-22T16:01:54.527Z,96931.28
2022-08-22T16:04:32.649Z,96934.84
2022-08-22T16:07:01.305Z,96939.25
2022-08-22T16:09:36.917Z,96930.03
2022-08-22T16:12:06.367Z,96931.03
2022-08-22T16:14:35.966Z,96947.19
2022-08-22T16:17:08.115Z,96940.53
2022-08-22T16:19:35.526Z,96943.56
2022-08-22T16:22:05.221Z,96941.91
2022-08-22T16:24:33.986Z,96941.25
2022-08-22T16:27:24.668Z,96946.63
2022-08-22T16:29:59.308Z,96948.03
2022-08-22T16:32:28.317Z,96957.69
2022-08-22T16:34:54.687Z,96959.06
2022-08-22T16:37:27.199Z,96957.03
2022-08-22T16:40:04.110Z,96957.38
2022-08-22T16:42:37.958Z,96961.34
2022-08-22T16:45:08.343Z,96957.03
2022-08-22T16:47:40.223Z,96974.34
2022-08-22T16:50:06.633Z,96972.41
2022-08-22T16:52:51.985Z,96981.28
2022-08-22T16:55:30.383Z,96978.53
2022-08-22T16:58:06.066Z,96980.25
2022-08-22T17:00:58.094Z,96987.31
2022-08-22T17:03:34.017Z,96990.31
2022-08-22T17:06:23.346Z,96986.94
2022-08-22T17:12:45.425Z,96995.66
2022-08-22T17:50:23.920Z,97025.50
2022-08-22T17:53:02.055Z,97019.63
2022-08-22T18:10:57.392Z,97034.22
2022-08-22T18:36:49.518Z,97040.28
2022-08-22T18:39:29.804Z,97042.09
2022-08-22T18:42:11.664Z,97046.59
2022-08-22T18:44:47.988Z,97038.72
2022-08-22T18:54:06.842Z,97044.47
2022-08-22T19:13:10.873Z,97045.84
2022-08-22T19:15:20.190Z,97066.03
2022-08-22T19:18:19.693Z,97071.59
2022-08-22T19:32:44.113Z,97071.50
2022-08-22T19:50:28.068Z,97069.97
2022-08-22T20:07:15.008Z,97069.50
2022-08-22T20:09:47.949Z,97067.34
2022-08-22T20:12:29.595Z,97065.25
2022-08-22T20:14:57.106Z,97068.03
2022-08-22T20:20:58.270Z,97075.38
2022-08-22T20:41:35.518Z,97089.16
2022-08-22T20:44:22.487Z,97080.94
2022-08-22T20:46:53.618Z,97079.88
2022-08-22T20:49:23.957Z,97082.22
2022-08-22T20:51:55.492Z,97082.13
2022-08-22T20:54:24.185Z,97085.78
2022-08-22T20:56:53.485Z,97079.25
2022-08-22T20:59:20.187Z,97080.38
2022-08-22T21:01:47.020Z,97070.44
2022-08-22T21:04:15.770Z,97075.44
2022-08-22T21:06:42.180Z,97074.31
2022-08-22T21:09:31.889Z,97069.22
2022-08-22T21:11:59.901Z,97067.53
2022-08-22T21:14:27.133Z,97067.22
2022-08-22T21:16:53.759Z,97067.00
2022-08-22T21:19:24.052Z,97062.97
2022-08-22T21:21:50.546Z,97057.09
2022-08-22T21:24:17.032Z,97053.84
2022-08-22T21:26:46.431Z,97057.03
2022-08-22T21:29:26.625Z,97048.03
2022-08-22T21:32:15.489Z,97048.81
2022-08-22T21:34:44.319Z,97049.56
2022-08-22T21:37:18.171Z,97048.75
2022-08-22T21:39:47.128Z,97054.91
2022-08-22T21:42:30.413Z,97057.88
2022-08-22T21:45:04.094Z,97052.03
2022-08-22T21:47:35.811Z,97050.84
2022-08-22T21:50:09.467Z,97054.69
2022-08-22T21:52:37.269Z,97059.69
2022-08-22T21:55:21.840Z,97057.72
2022-08-22T21:58:13.629Z,97065.03
2022-08-22T22:01:20.141Z,97069.63
2022-08-22T22:03:51.419Z,97067.03
2022-08-22T22:06:18.001Z,97062.38
2022-08-22T22:08:46.808Z,97061.66
2022-08-22T22:11:16.849Z,97059.69
2022-08-22T22:16:52.953Z,97050.25
2022-08-22T22:23:38.895Z,97051.03
2022-08-22T22:29:04.083Z,97051.94
2022-08-22T22:31:37.965Z,97047.50
2022-08-22T22:34:35.738Z,97052.16
2022-08-22T22:40:11.294Z,97048.34
2022-08-22T22:53:33.755Z,97042.91
2022-08-22T22:56:28.090Z,97031.47
2022-08-22T23:02:58.716Z,97045.38
2022-08-22T23:05:25.244Z,97042.00
2022-08-22T23:07:51.693Z,97038.38
2022-08-22T23:10:23.567Z,97049.91
2022-08-22T23:12:50.076Z,97046.56
2022-08-22T23:15:16.780Z,97052.53
2022-08-22T23:17:43.723Z,97046.06
2022-08-22T23:20:15.270Z,97044.28
2022-08-22T23:22:44.973Z,97050.38
2022-08-22T23:25:22.924Z,97047.88
2022-08-22T23:28:05.661Z,97047.72
2022-08-22T23:31:19.174Z,97053.06
2022-08-22T23:34:14.612Z,97055.00
2022-08-22T23:40:50.684Z,97050.38
2022-08-22T23:43:19.273Z,97045.88
2022-08-22T23:46:11.675Z,97047.03
2022-08-22T23:48:40.774Z,97036.41
